createdAt,value
2019-02-22T00:01:19.761Z,67.11
2019-02-22T00:03:48.562Z,67.54
2019-02-22T00:06:17.561Z,67.98
2019-02-22T00:08:46.472Z,68.13
2019-02-22T00:11:15.288Z,68.20
2019-02-22T00:13:44.213Z,68.20
2019-02-22T00:16:13.105Z,68.22
2019-02-22T00:18:42.165Z,68.35
2019-02-22T00:21:11.085Z,68.40
2019-02-22T00:23:39.935Z,68.59
2019-02-22T00:26:10.969Z,68.17
2019-02-22T00:28:39.457Z,68.12
2019-02-22T00:31:08.434Z,67.89
2019-02-22T00:33:37.491Z,67.49
2019-02-22T00:36:06.477Z,67.19
2019-02-22T00:38:35.425Z,67.11
2019-02-22T00:41:04.385Z,67.24
2019-02-22T00:43:33.449Z,67.13
2019-02-22T00:46:02.401Z,66.87
2019-02-22T00:48:31.351Z,67.54
2019-02-22T00:51:00.261Z,67.45
2019-02-22T00:53:29.086Z,67.03
2019-02-22T00:55:57.914Z,66.78
2019-02-22T00:58:26.835Z,66.31
2019-02-22T01:00:55.705Z,66.41
2019-02-22T01:03:24.718Z,66.99
2019-02-22T01:05:53.508Z,66.86
2019-02-22T01:08:22.399Z,66.76
2019-02-22T01:10:51.308Z,66.15
2019-02-22T01:13:20.263Z,65.86
2019-02-22T01:15:49.177Z,65.76
2019-02-22T01:18:18.019Z,65.64
2019-02-22T01:20:53.968Z,65.63
2019-02-22T01:23:17.448Z,65.83
2019-02-22T01:25:46.410Z,66.25
2019-02-22T01:28:15.245Z,65.78
2019-02-22T01:30:44.325Z,65.95
2019-02-22T01:33:13.311Z,66.06
2019-02-22T01:35:42.226Z,65.98
2019-02-22T01:38:11.237Z,65.85
2019-02-22T01:40:43.562Z,65.84
2019-02-22T01:43:10.863Z,66.53
2019-02-22T01:45:39.650Z,66.18
2019-02-22T01:48:08.605Z,66.62
2019-02-22T01:50:37.570Z,66.48
2019-02-22T01:53:06.589Z,66.64
2019-02-22T01:55:35.581Z,66.76
2019-02-22T01:58:04.517Z,67.10
2019-02-22T02:00:33.497Z,66.68
2019-02-22T02:03:02.345Z,67.13
2019-02-22T02:05:31.160Z,67.75
2019-02-22T02:08:00.013Z,67.79
2019-02-22T02:10:28.946Z,68.00
2019-02-22T02:12:57.741Z,68.11
2019-02-22T02:15:26.673Z,68.23
2019-02-22T02:17:55.509Z,68.13
2019-02-22T02:20:24.539Z,67.84
2019-02-22T02:22:53.501Z,68.22
2019-02-22T02:25:22.459Z,67.89
2019-02-22T02:27:51.343Z,68.20
2019-02-22T02:30:20.302Z,68.36
2019-02-22T02:32:49.194Z,68.57
2019-02-22T02:35:18.178Z,68.61
2019-02-22T02:37:47.137Z,68.98
2019-02-22T02:40:16.149Z,69.04
2019-02-22T02:42:45.137Z,69.09
2019-02-22T02:45:14.127Z,69.08
2019-02-22T02:47:43.090Z,69.21
2019-02-22T02:50:18.133Z,69.45
2019-02-22T02:52:47.089Z,69.52
2019-02-22T02:55:26.695Z,69.52
2019-02-22T02:57:55.649Z,69.51
2019-02-22T03:00:24.592Z,69.83
2019-02-22T03:02:53.623Z,70.11
2019-02-22T03:05:27.503Z,70.10
2019-02-22T03:07:56.778Z,70.00
2019-02-22T03:10:25.668Z,70.08
2019-02-22T03:12:54.497Z,70.15
2019-02-22T03:15:23.405Z,69.97
2019-02-22T03:17:52.330Z,70.03
2019-02-22T03:20:21.339Z,70.04
2019-02-22T03:22:50.231Z,70.09
2019-02-22T03:25:19.160Z,70.25
2019-02-22T03:27:48.082Z,70.24
2019-02-22T03:30:17.047Z,69.50
2019-02-22T03:32:45.884Z,69.51
2019-02-22T03:35:14.914Z,69.38
2019-02-22T03:37:43.824Z,69.47
2019-02-22T03:40:12.921Z,68.96
2019-02-22T03:42:41.956Z,68.99
2019-02-22T03:45:10.980Z,69.34
2019-02-22T03:47:39.964Z,69.32
2019-02-22T03:50:08.946Z,69.56
2019-02-22T03:52:45.087Z,70.13
2019-02-22T03:55:14.346Z,69.92
2019-02-22T03:57:43.369Z,69.90
2019-02-22T04:00:12.629Z,70.14
2019-02-22T04:02:41.496Z,69.73
2019-02-22T04:05:10.519Z,69.94
2019-02-22T04:07:39.427Z,69.70
2019-02-22T04:10:08.496Z,69.29
2019-02-22T04:12:37.363Z,69.62
2019-02-22T04:15:06.552Z,69.79
2019-02-22T04:17:35.480Z,69.78
2019-02-22T04:20:04.363Z,70.10
2019-02-22T04:22:33.271Z,69.79
2019-02-22T04:25:02.198Z,70.11
2019-02-22T04:27:31.036Z,69.78
2019-02-22T04:30:00.158Z,69.32
2019-02-22T04:32:29.302Z,69.31
2019-02-22T04:34:58.155Z,69.61
2019-02-22T04:37:27.142Z,69.96
2019-02-22T04:39:55.946Z,69.88
2019-02-22T04:42:24.954Z,69.93
2019-02-22T04:44:53.974Z,70.12
2019-02-22T04:47:24.011Z,70.19
2019-02-22T04:49:52.929Z,69.88
2019-02-22T04:52:21.833Z,70.06
2019-02-22T04:54:50.764Z,70.08
2019-02-22T04:57:19.706Z,70.28
2019-02-22T04:59:48.528Z,70.56
2019-02-22T05:02:17.592Z,70.68
2019-02-22T05:04:47.583Z,70.83
2019-02-22T05:07:16.480Z,71.45
2019-02-22T05:09:45.414Z,71.63
2019-02-22T05:12:14.314Z,71.63
2019-02-22T05:14:43.423Z,71.38
2019-02-22T05:17:12.404Z,71.47
2019-02-22T05:19:41.407Z,71.25
2019-02-22T05:22:10.382Z,71.24
2019-02-22T05:24:39.393Z,71.31
2019-02-22T05:27:08.186Z,71.36
2019-02-22T05:29:37.094Z,71.10
2019-02-22T05:32:06.142Z,71.54
2019-02-22T05:34:35.556Z,71.80
2019-02-22T05:37:04.410Z,71.46
2019-02-22T05:39:33.363Z,71.40
2019-02-22T05:42:02.259Z,71.62
2019-02-22T05:44:31.180Z,71.80
2019-02-22T05:47:00.774Z,71.75
2019-02-22T05:49:29.884Z,71.69
2019-02-22T05:51:58.833Z,71.73
2019-02-22T05:54:27.769Z,71.93
2019-02-22T05:56:56.695Z,71.74
2019-02-22T05:59:25.529Z,71.59
2019-02-22T06:01:54.410Z,71.53
2019-02-22T06:04:23.375Z,71.51
2019-02-22T06:06:52.232Z,71.43
2019-02-22T06:09:21.156Z,71.64
2019-02-22T06:11:49.939Z,71.27
2019-02-22T06:14:18.792Z,71.02
2019-02-22T06:16:47.642Z,71.23
2019-02-22T06:19:16.522Z,70.85
2019-02-22T06:21:45.415Z,71.77
2019-02-22T06:24:14.429Z,71.91
2019-02-22T06:26:43.803Z,72.52
2019-02-22T06:29:12.817Z,72.41
2019-02-22T06:31:41.751Z,72.66
2019-02-22T06:34:11.099Z,72.62
2019-02-22T06:36:40.098Z,72.40
2019-02-22T06:39:09.117Z,72.46
2019-02-22T06:41:37.986Z,71.73
2019-02-22T06:44:06.895Z,71.31
2019-02-22T06:46:35.939Z,70.85
2019-02-22T06:49:04.876Z,70.65
2019-02-22T06:51:33.875Z,70.75
2019-02-22T06:54:02.886Z,70.93
2019-02-22T06:56:31.711Z,70.42
2019-02-22T06:59:00.680Z,71.01
2019-02-22T07:01:29.637Z,71.10
2019-02-22T07:03:58.531Z,70.61
2019-02-22T07:06:27.418Z,70.71
2019-02-22T07:08:56.409Z,70.71
2019-02-22T07:11:43.413Z,70.35
2019-02-22T07:14:12.328Z,69.56
2019-02-22T07:16:41.330Z,69.80
2019-02-22T07:19:10.173Z,69.93
2019-02-22T07:21:51.835Z,69.57
2019-02-22T07:24:09.706Z,69.33
2019-02-22T07:26:38.740Z,68.64
2019-02-22T07:29:07.714Z,68.90
2019-02-22T07:31:36.813Z,68.78
2019-02-22T07:34:05.735Z,67.94
2019-02-22T07:36:34.637Z,68.06
2019-02-22T07:39:04.934Z,68.25
2019-02-22T07:41:33.813Z,67.44
2019-02-22T07:44:02.817Z,67.60
2019-02-22T07:46:31.752Z,66.41
2019-02-22T07:49:00.572Z,66.40
2019-02-22T07:51:29.655Z,66.86
2019-02-22T07:53:58.572Z,66.71
2019-02-22T07:56:27.509Z,66.98
2019-02-22T07:58:56.545Z,66.52
2019-02-22T08:01:27.031Z,66.14
2019-02-22T08:03:56.186Z,65.69
2019-02-22T08:06:25.277Z,65.42
2019-02-22T08:08:54.111Z,64.42
2019-02-22T08:11:25.808Z,63.89
2019-02-22T08:13:54.708Z,63.49
2019-02-22T08:16:23.863Z,63.78
2019-02-22T08:19:00.904Z,64.06
2019-02-22T08:21:23.944Z,62.82
2019-02-22T08:23:55.141Z,62.28
2019-02-22T08:26:24.260Z,62.58
2019-02-22T08:28:53.303Z,63.39
2019-02-22T08:31:22.368Z,63.04
2019-02-22T08:33:51.340Z,62.83
2019-02-22T08:36:20.300Z,62.68
2019-02-22T08:38:49.193Z,62.02
2019-02-22T08:41:18.212Z,61.50
2019-02-22T08:43:47.270Z,61.37
2019-02-22T08:46:16.155Z,60.35
2019-02-22T08:48:45.173Z,60.08
2019-02-22T08:51:14.032Z,60.52
2019-02-22T08:53:43.090Z,60.38
2019-02-22T08:56:11.937Z,60.67
2019-02-22T08:58:40.920Z,60.32
2019-02-22T09:01:09.878Z,59.86
2019-02-22T09:03:49.678Z,58.50
2019-02-22T09:06:10.146Z,58.18
2019-02-22T09:08:38.977Z,57.28
2019-02-22T09:11:08.042Z,57.81
2019-02-22T09:13:43.646Z,57.69
2019-02-22T09:16:07.568Z,56.16
2019-02-22T09:18:37.219Z,55.76
2019-02-22T09:21:06.085Z,56.30
2019-02-22T09:23:35.473Z,55.81
2019-02-22T09:26:04.441Z,56.08
2019-02-22T09:28:33.323Z,56.04
2019-02-22T09:31:02.293Z,55.18
2019-02-22T09:33:31.353Z,55.22
2019-02-22T09:36:00.349Z,54.96
2019-02-22T09:38:29.299Z,55.22
2019-02-22T09:40:58.216Z,55.85
2019-02-22T09:43:27.010Z,55.81
2019-02-22T09:45:55.941Z,55.59
2019-02-22T09:48:24.898Z,55.34
2019-02-22T09:50:54.007Z,55.07
2019-02-22T09:53:22.931Z,55.02
2019-02-22T09:55:51.879Z,55.48
2019-02-22T09:58:20.913Z,55.04
2019-02-22T10:00:49.832Z,54.94
2019-02-22T10:03:18.629Z,54.57
2019-02-22T10:05:48.023Z,54.73
2019-02-22T10:08:16.992Z,54.79
2019-02-22T10:10:46.064Z,54.47
2019-02-22T10:13:14.970Z,54.20
2019-02-22T10:15:43.983Z,54.19
2019-02-22T10:18:12.835Z,53.61
2019-02-22T10:20:41.835Z,53.68
2019-02-22T10:23:10.838Z,53.68
2019-02-22T10:25:39.973Z,52.67
2019-02-22T10:28:17.311Z,53.16
2019-02-22T10:30:39.903Z,52.66
2019-02-22T10:33:08.954Z,52.85
2019-02-22T10:35:37.889Z,52.29
2019-02-22T10:38:07.168Z,52.72
2019-02-22T10:40:36.148Z,51.56
2019-02-22T10:43:05.115Z,52.04
2019-02-22T10:45:36.744Z,51.95
2019-02-22T10:48:04.810Z,51.93
2019-02-22T10:50:33.835Z,51.42
2019-02-22T10:53:03.074Z,50.16
2019-02-22T10:55:32.055Z,50.61
2019-02-22T10:58:01.137Z,50.38
2019-02-22T11:00:30.239Z,48.70
2019-02-22T11:02:59.215Z,48.70
2019-02-22T11:05:28.315Z,48.35
2019-02-22T11:07:57.123Z,47.75
2019-02-22T11:10:26.142Z,47.22
2019-02-22T11:12:55.234Z,47.12
2019-02-22T11:15:24.338Z,47.06
2019-02-22T11:17:55.224Z,46.65
2019-02-22T11:20:24.256Z,46.36
2019-02-22T11:22:53.337Z,46.42
2019-02-22T11:25:22.355Z,45.83
2019-02-22T11:27:51.548Z,46.81
2019-02-22T11:30:20.647Z,46.45
2019-02-22T11:32:49.657Z,46.47
2019-02-22T11:35:18.604Z,46.18
2019-02-22T11:37:47.629Z,44.98
2019-02-22T11:40:16.559Z,44.55
2019-02-22T11:42:45.445Z,44.81
2019-02-22T11:45:14.529Z,44.98
2019-02-22T11:47:43.418Z,45.52
2019-02-22T11:50:12.410Z,46.05
2019-02-22T11:52:41.369Z,45.61
2019-02-22T11:55:10.494Z,44.94
2019-02-22T11:57:39.617Z,44.33
2019-02-22T12:00:11.472Z,43.93
2019-02-22T12:02:40.723Z,43.59
2019-02-22T12:05:09.750Z,43.25
2019-02-22T12:07:38.619Z,42.88
2019-02-22T12:10:07.788Z,42.39
2019-02-22T12:12:36.968Z,42.19
2019-02-22T12:15:07.166Z,42.45
2019-02-22T12:17:36.116Z,42.91
2019-02-22T12:20:05.370Z,43.36
2019-02-22T12:22:34.481Z,43.61
2019-02-22T12:25:03.355Z,43.63
2019-02-22T12:27:32.313Z,44.58
2019-02-22T12:30:01.338Z,45.20
2019-02-22T12:32:30.568Z,45.98
2019-02-22T12:34:59.424Z,46.06
2019-02-22T12:37:28.555Z,46.77
2019-02-22T12:39:57.499Z,47.62
2019-02-22T12:42:26.524Z,47.99
2019-02-22T12:45:02.833Z,48.44
2019-02-22T12:47:26.002Z,49.15
2019-02-22T12:49:54.960Z,49.49
2019-02-22T12:52:23.859Z,48.56
2019-02-22T12:54:52.766Z,48.34
2019-02-22T12:57:21.702Z,49.18
2019-02-22T12:59:50.621Z,49.80
2019-02-22T13:02:19.537Z,50.11
2019-02-22T13:04:48.482Z,49.86
2019-02-22T13:07:17.399Z,50.21
2019-02-22T13:09:46.320Z,50.59
2019-02-22T13:12:17.311Z,50.58
2019-02-22T13:14:45.983Z,50.71
2019-02-22T13:17:14.880Z,50.94
2019-02-22T13:19:44.105Z,51.26
2019-02-22T13:22:13.069Z,51.26
2019-02-22T13:24:41.960Z,50.85
2019-02-22T13:27:10.868Z,51.19
2019-02-22T13:29:39.795Z,50.99
2019-02-22T13:32:08.638Z,51.10
2019-02-22T13:34:37.576Z,50.56
2019-02-22T13:37:06.524Z,50.71
2019-02-22T13:39:35.387Z,50.95
2019-02-22T13:42:04.573Z,50.95
2019-02-22T13:44:33.586Z,50.46
2019-02-22T13:47:02.416Z,50.26
2019-02-22T13:49:31.389Z,49.70
2019-02-22T13:52:00.284Z,49.11
2019-02-22T13:54:29.196Z,48.50
2019-02-22T13:56:57.979Z,47.31
2019-02-22T13:59:26.826Z,47.15
2019-02-22T14:01:55.701Z,47.22
2019-02-22T14:04:32.812Z,47.42
2019-02-22T14:07:02.013Z,46.78
2019-02-22T14:09:30.941Z,45.64
2019-02-22T14:11:59.763Z,45.67
2019-02-22T14:14:28.701Z,46.34
2019-02-22T14:16:57.547Z,45.48
2019-02-22T14:19:26.431Z,44.49
2019-02-22T14:21:55.447Z,43.57
2019-02-22T14:24:24.307Z,45.37
2019-02-22T14:26:53.151Z,50.14
2019-02-22T14:29:22.939Z,47.02
2019-02-22T14:31:51.944Z,47.54
2019-02-22T14:34:20.797Z,46.63
2019-02-22T14:36:49.893Z,47.08
2019-02-22T14:39:18.759Z,46.73
2019-02-22T14:41:48.110Z,47.35
2019-02-22T14:44:17.110Z,47.60
2019-02-22T14:46:46.232Z,49.46
2019-02-22T14:49:15.146Z,48.22
2019-02-22T14:51:44.117Z,47.45
2019-02-22T14:54:13.199Z,50.43
2019-02-22T14:56:42.133Z,47.38
2019-02-22T14:59:10.993Z,48.72
2019-02-22T15:01:40.005Z,48.74
2019-02-22T15:04:09.006Z,48.24
2019-02-22T15:06:40.326Z,49.29
2019-02-22T15:09:08.807Z,48.43
2019-02-22T15:11:37.810Z,48.99
2019-02-22T15:14:06.839Z,48.35
2019-02-22T15:16:58.354Z,48.24
2019-02-22T15:19:27.547Z,49.08
2019-02-22T15:21:56.481Z,48.78
2019-02-22T15:24:25.516Z,48.62
2019-02-22T15:26:54.493Z,48.62
2019-02-22T15:29:23.525Z,49.32
2019-02-22T15:31:52.449Z,48.62
2019-02-22T15:34:21.398Z,48.75
2019-02-22T15:36:50.645Z,48.60
2019-02-22T15:39:19.599Z,49.15
2019-02-22T15:41:48.545Z,48.22
2019-02-22T15:44:17.745Z,48.99
2019-02-22T15:46:55.872Z,48.89
2019-02-22T15:49:25.015Z,49.43
2019-02-22T15:51:53.945Z,49.14
2019-02-22T15:54:23.126Z,49.42
2019-02-22T15:56:52.079Z,51.68
2019-02-22T15:59:21.274Z,50.73
2019-02-22T16:01:55.205Z,51.09
2019-02-22T16:04:45.109Z,51.78
2019-02-22T16:07:13.735Z,52.05
2019-02-22T16:09:42.754Z,52.30
2019-02-22T16:12:11.761Z,52.84
2019-02-22T16:14:40.840Z,52.88
2019-02-22T16:17:10.062Z,53.24
2019-02-22T16:19:38.780Z,53.65
2019-02-22T16:22:07.773Z,53.82
2019-02-22T16:24:39.782Z,53.86
2019-02-22T16:27:08.656Z,53.70
2019-02-22T16:29:37.618Z,53.75
2019-02-22T16:32:06.817Z,54.18
2019-02-22T16:34:43.135Z,54.22
2019-02-22T16:37:06.366Z,54.60
2019-02-22T16:39:35.255Z,54.99
2019-02-22T16:42:04.259Z,55.62
2019-02-22T16:44:33.338Z,55.90
2019-02-22T16:47:02.350Z,56.11
2019-02-22T16:49:31.327Z,56.64
2019-02-22T16:52:00.363Z,57.13
2019-02-22T16:54:29.242Z,57.13
2019-02-22T16:56:58.226Z,57.27
2019-02-22T16:59:27.170Z,57.66
2019-02-22T17:01:56.311Z,58.27
2019-02-22T17:04:25.269Z,58.82
2019-02-22T17:06:54.200Z,58.73
2019-02-22T17:09:23.573Z,59.04
2019-02-22T17:11:52.501Z,59.48
2019-02-22T17:14:21.459Z,59.86
2019-02-22T17:16:50.422Z,60.34
2019-02-22T17:19:19.264Z,60.46
2019-02-22T17:21:48.071Z,60.85
2019-02-22T17:24:17.064Z,60.38
2019-02-22T17:26:46.049Z,60.57
2019-02-22T17:29:14.959Z,60.92
2019-02-22T17:31:44.181Z,60.93
2019-02-22T17:34:13.079Z,60.97
2019-02-22T17:36:41.966Z,61.64
2019-02-22T17:39:10.940Z,61.86
2019-02-22T17:41:42.782Z,62.24
2019-02-22T17:44:11.353Z,62.05
2019-02-22T17:46:40.240Z,61.77
2019-02-22T17:49:09.252Z,62.19
2019-02-22T17:51:38.307Z,63.55
2019-02-22T17:54:07.208Z,63.55
2019-02-22T17:56:36.121Z,63.59
2019-02-22T17:59:05.186Z,63.56
2019-02-22T18:01:34.084Z,63.91
2019-02-22T18:04:02.968Z,64.46
2019-02-22T18:06:31.990Z,64.78
2019-02-22T18:09:00.896Z,65.21
2019-02-22T18:11:30.392Z,65.64
2019-02-22T18:13:59.270Z,65.82
2019-02-22T18:16:28.178Z,66.04
2019-02-22T18:18:57.073Z,65.93
2019-02-22T18:21:26.098Z,65.70
2019-02-22T18:23:54.948Z,66.45
2019-02-22T18:26:23.862Z,66.80
2019-02-22T18:28:52.671Z,67.20
2019-02-22T18:31:21.766Z,67.32
2019-02-22T18:33:50.689Z,67.57
2019-02-22T18:36:19.489Z,67.52
2019-02-22T18:38:48.426Z,67.80
2019-02-22T18:41:17.337Z,67.96
2019-02-22T18:43:46.290Z,67.75
2019-02-22T18:46:15.211Z,66.64
2019-02-22T18:48:44.108Z,65.81
2019-02-22T18:51:13.124Z,65.51
2019-02-22T18:53:42.035Z,65.71
2019-02-22T18:56:10.956Z,64.84
2019-02-22T18:58:39.738Z,65.72
2019-02-22T19:01:08.842Z,65.80
2019-02-22T19:03:37.707Z,65.54
2019-02-22T19:06:06.669Z,65.52
2019-02-22T19:08:35.525Z,65.56
2019-02-22T19:11:04.472Z,65.86
2019-02-22T19:13:33.284Z,65.88
2019-02-22T19:16:02.058Z,65.27
2019-02-22T19:18:30.882Z,64.61
2019-02-22T19:20:59.698Z,64.29
2019-02-22T19:23:28.556Z,63.70
2019-02-22T19:25:57.431Z,64.08
2019-02-22T19:28:26.428Z,63.95
2019-02-22T19:30:55.308Z,64.06
2019-02-22T19:33:24.411Z,63.81
2019-02-22T19:35:53.297Z,64.32
2019-02-22T19:38:22.327Z,64.40
2019-02-22T19:40:51.759Z,64.75
2019-02-22T19:43:20.966Z,64.47
2019-02-22T19:45:50.035Z,64.98
2019-02-22T19:48:18.953Z,64.96
2019-02-22T19:50:48.044Z,65.10
2019-02-22T19:53:16.994Z,65.08
2019-02-22T19:55:47.050Z,64.85
2019-02-22T19:58:16.214Z,64.35
2019-02-22T20:00:45.140Z,64.56
2019-02-22T20:03:14.087Z,64.67
2019-02-22T20:05:43.313Z,64.72
2019-02-22T20:08:12.309Z,64.89
2019-02-22T20:10:42.268Z,65.12
2019-02-22T20:13:11.258Z,65.83
2019-02-22T20:15:40.122Z,65.43
2019-02-22T20:18:09.803Z,65.78
2019-02-22T20:20:39.034Z,65.96
2019-02-22T20:23:07.875Z,66.23
2019-02-22T20:25:36.836Z,65.96
2019-02-22T20:28:05.813Z,66.64
2019-02-22T20:30:34.729Z,66.99
2019-02-22T20:33:03.622Z,67.39
2019-02-22T20:35:32.956Z,66.80
2019-02-22T20:38:02.022Z,66.40
2019-02-22T20:40:30.884Z,66.82
2019-02-22T20:42:59.816Z,66.72
2019-02-22T20:45:28.878Z,66.71
2019-02-22T20:48:05.041Z,66.60
2019-02-22T20:50:30.107Z,66.77
2019-02-22T20:53:00.700Z,67.32
2019-02-22T20:55:30.245Z,66.92
2019-02-22T20:57:59.292Z,67.14
2019-02-22T21:00:28.304Z,67.19
2019-02-22T21:02:57.290Z,67.81
2019-02-22T21:05:26.120Z,68.20
2019-02-22T21:07:55.032Z,68.51
2019-02-22T21:10:24.056Z,68.70
2019-02-22T21:12:52.938Z,68.89
2019-02-22T21:15:21.833Z,69.16
2019-02-22T21:17:50.746Z,69.67
2019-02-22T21:20:19.746Z,70.36
2019-02-22T21:22:48.707Z,70.25
2019-02-22T21:25:18.271Z,70.36
2019-02-22T21:27:47.553Z,70.12
2019-02-22T21:30:16.895Z,70.09
2019-02-22T21:32:45.732Z,69.16
2019-02-22T21:35:14.702Z,69.18
2019-02-22T21:37:43.938Z,69.51
2019-02-22T21:40:13.519Z,69.57
2019-02-22T21:42:42.476Z,70.18
2019-02-22T21:45:12.044Z,70.75
2019-02-22T21:47:41.311Z,71.01
2019-02-22T21:50:12.092Z,70.44
2019-02-22T21:52:41.046Z,70.50
2019-02-22T21:55:10.659Z,70.62
2019-02-22T21:57:39.755Z,70.55
2019-02-22T22:00:12.091Z,70.75
2019-02-22T22:02:41.024Z,70.49
2019-02-22T22:05:09.965Z,70.44
2019-02-22T22:07:38.987Z,70.56
2019-02-22T22:10:08.019Z,70.16
2019-02-22T22:12:36.904Z,70.18
2019-02-22T22:15:06.240Z,70.30
2019-02-22T22:17:35.137Z,70.54
2019-02-22T22:20:04.404Z,70.59
2019-02-22T22:22:33.246Z,70.57
2019-02-22T22:25:02.240Z,71.11
2019-02-22T22:27:31.242Z,71.15
2019-02-22T22:30:00.212Z,71.38
2019-02-22T22:32:29.427Z,71.32
2019-02-22T22:34:58.321Z,71.45
2019-02-22T22:37:34.460Z,71.50
2019-02-22T22:40:03.405Z,71.63
2019-02-22T22:42:32.313Z,71.97
2019-02-22T22:45:01.328Z,72.23
2019-02-22T22:47:30.326Z,72.29
2019-02-22T22:49:59.162Z,72.62
2019-02-22T22:52:28.177Z,72.58
2019-02-22T22:54:57.097Z,72.73
2019-02-22T22:57:26.090Z,72.67
2019-02-22T22:59:55.006Z,72.90
2019-02-22T23:02:24.412Z,73.00
2019-02-22T23:04:53.260Z,72.93
2019-02-22T23:07:22.253Z,73.18
2019-02-22T23:09:51.285Z,73.27
2019-02-22T23:12:20.412Z,73.15
2019-02-22T23:14:49.240Z,73.11
2019-02-22T23:17:18.324Z,73.38
2019-02-22T23:19:47.335Z,73.43
2019-02-22T23:22:16.289Z,73.25
2019-02-22T23:24:45.234Z,73.22
2019-02-22T23:27:14.164Z,73.04
2019-02-22T23:29:43.043Z,72.94
2019-02-22T23:32:11.932Z,73.20
2019-02-22T23:34:40.939Z,73.12
2019-02-22T23:37:09.956Z,73.35
2019-02-22T23:39:39.683Z,73.44
2019-02-22T23:42:08.633Z,73.64
2019-02-22T23:44:37.496Z,73.70
2019-02-22T23:47:06.454Z,73.97
2019-02-22T23:49:36.448Z,73.98
2019-02-22T23:52:05.437Z,73.80
2019-02-22T23:54:34.309Z,74.32
2019-02-22T23:57:03.142Z,74.42
2019-02-22T23:59:32.105Z,74.16
